KPIT/PIT METAR and TAF weather

Enter ICAO airport designator
Station Type Date Time Source
KPIT METAR 2020/09/20 09:51 UTC NOAA

KPIT 200951Z 06003KT 10SM CLR 06/02 A3041 RMK AO2 SLP308 T00560022


Station Type Date Time Source
KPIT Decoded METAR 2020/09/20 09:51 UTC NOAA

GREATER PITTSBURGH INTERNATIONAL , PA, United States (KPIT) 40-29N 80-14W 357M
Sep 20, 2020 - 05:51 AM EDT / 2020.09.20 0951 UTC
Wind: from the ENE (060 degrees) at 3 MPH (3 KT):0
Visibility: 10 mile(s):0
Sky conditions: clear
Temperature: 42.1 F (5.6 C)
Dew Point: 36.0 F (2.2 C)
Relative Humidity: 78%
Pressure (altimeter): 30.41 in. Hg (1029 hPa)
ob: KPIT 200951Z 06003KT 10SM CLR 06/02 A3041 RMK AO2 SLP308 T00560022
cycle: 10

Station Type Date Time Source
KPIT TAF 2020/09/20 09:57 UTC NOAA

TAF
AMD KPIT 200855Z 2009/2112 06005KT P6SM SKC

Example: see airport list